Temp     Hi    Low   Out    Dew  Wind  Wind   Wind    Hi    Hi   Wind   Heat    THW                Rain    Heat    Cool    In     In    In     In     In   In Air   Temp  Wind  Wind    ISS   Arc.
  Date    Time     Out   Temp   Temp   Hum    Pt. Speed   Dir    Run Speed   Dir  Chill  Index  Index   Bar    Rain  Rate    D-D     D-D    Temp   Hum    Dew   Heat    EMC Density    2nd  Samp   Tx   Recept  Int.
----------------------------------------------------------------------------------------------------------------------------------------------------------------------------------------------------------------------
22/04/18 12:10a   13.8   13.9   13.8    83   10.9   0.0   ---   0.00   0.0   ---   13.8   13.7   13.7  1020.1  0.00   0.0   0.032   0.000   22.5    42    8.9   21.7   8.00 1.1891    41.7   219    2     98.6   10 
22/04/18 12:20a   13.7   13.8   13.7    84   11.1   0.0   ---   0.00   0.0   ---   13.7   13.7   13.7  1019.6  0.00   0.0   0.032   0.000   22.3    42    8.8   21.4   8.01 1.1894    41.7   214    2     96.4   10 
22/04/18 12:30a   13.5   13.7   13.5    84   10.8   0.0   ---   0.00   0.0   ---   13.5   13.4   13.4  1019.8  0.00   0.0   0.034   0.000   22.2    43    9.0   21.3   8.17 1.1899    41.7   214    2     96.4   10 
22/04/18 12:40a   13.3   13.5   13.3    84   10.7   0.0   ---   0.00   0.0   ---   13.3   13.3   13.3  1019.8  0.00   0.0   0.035   0.000   22.2    43    9.0   21.3   8.17 1.1899    41.7   198    2     89.2   10 
22/04/18 12:50a   13.1   13.3   13.1    85   10.6   0.0   ---   0.00   0.0   ---   13.1   13.0   13.0  1019.8  0.00   0.0   0.037   0.000   22.2    43    9.0   21.3   8.17 1.1898    41.7   195    2     87.8   10 
22/04/18  1:00a   12.9   13.1   12.9    85   10.4   0.0   ---   0.00   0.0   ---   12.9   12.8   12.8  1019.8  0.00   0.0   0.038   0.000   22.2    43    9.0   21.3   8.17 1.1901    41.7   215    2     96.8   10 
22/04/18  1:10a   12.7   12.8   12.7    85   10.2   0.0   ---   0.00   0.0   ---   12.7   12.6   12.6  1019.8  0.00   0.0   0.039   0.000   22.1    43    8.9   21.1   8.18 1.1906    41.7   220    2     99.1   10 
22/04/18  1:20a   12.5   12.7   12.5    86   10.2   0.0   ---   0.00   0.0   ---   12.5   12.4   12.4  1019.6  0.00   0.0   0.041   0.000   21.8    43    8.7   20.8   8.20 1.1914    41.7   219    2     98.6   10 
22/04/18  1:30a   12.4   12.5   12.4    87   10.3   0.0   ---   0.00   0.0   ---   12.4   12.4   12.4  1019.6  0.00   0.0   0.041   0.000   21.8    43    8.6   20.7   8.20 1.1918    41.7   217    2     97.7   10 
22/04/18  1:40a   12.2   12.4   12.2    87   10.1   0.0   ---   0.00   0.0   ---   12.2   12.2   12.2  1019.6  0.00   0.0   0.043   0.000   21.8    43    8.6   20.7   8.20 1.1918    41.7   216    2     97.3   10 
22/04/18  1:50a   11.9   12.2   11.9    88   10.0   0.0   ---   0.00   0.0   ---   11.9   11.9   11.9  1019.5  0.00   0.0   0.045   0.000   21.7    43    8.5   20.5   8.21 1.1922    41.7   220    2     99.1   10 
22/04/18  2:00a   11.8   11.9   11.8    89   10.1   0.0   ---   0.00   0.0   ---   11.8   11.9   11.9  1019.4  0.00   0.0   0.045   0.000   21.7    43    8.5   20.5   8.21 1.1921    41.7   216    2     97.3   10 
22/04/18  2:10a   11.7   11.8   11.7    89    9.9   0.0   ---   0.00   0.0   ---   11.7   11.7   11.7  1019.4  0.00   0.0   0.046   0.000   21.6    43    8.4   20.3   8.22 1.1926    41.7   218    2     98.2   10 
22/04/18  2:20a   11.6   11.7   11.6    90   10.0   0.0   ---   0.00   0.0   ---   11.6   11.7   11.7  1019.3  0.00   0.0   0.047   0.000   21.5    43    8.4   20.3   8.22 1.1927    41.7   217    2     97.7   10 
22/04/18  2:30a   11.6   11.6   11.6    90   10.0   0.0   ---   0.00   0.0   ---   11.6   11.7   11.7  1019.2  0.00   0.0   0.047   0.000   21.4    43    8.3   20.2   8.23 1.1932    41.7   217    2     97.7   10 
22/04/18  2:40a   11.8   11.8   11.6    92   10.6   0.0   ---   0.00   0.0   ---   11.8   11.9   11.9  1019.2  0.00   0.0   0.045   0.000   21.4    43    8.3   20.2   8.23 1.1932    41.7   218    2     98.2   10 
22/04/18  2:50a   12.1   12.1   11.8    92   10.8   0.0   ---   0.00   0.0   ---   12.1   12.2   12.2  1019.3  0.00   0.0   0.044   0.000   21.3    43    8.2   20.0   8.24 1.1939    41.7   216    2     97.3   10 
22/04/18  3:00a   12.2   12.2   12.1    92   11.0   0.0   ---   0.00   0.0   ---   12.2   12.3   12.3  1019.2  0.00   0.0   0.042   0.000   21.3    43    8.2   20.0   8.24 1.1937    41.7   217    2     97.7   10 
22/04/18  3:10a   12.2   12.2   12.2    92   10.9   0.0   ---   0.00   0.0   ---   12.2   12.2   12.2  1019.2  0.00   0.0   0.043   0.000   21.3    44    8.5   20.1   8.34 1.1934    41.7   214    2     96.4   10 
22/04/18  3:20a   12.1   12.2   12.1    92   10.8   0.0   ---   0.00   0.0   ---   12.1   12.2   12.2  1019.2  0.00   0.0   0.044   0.000   21.2    44    8.5   20.0   8.35 1.1937    41.7   220    2     99.1   10 
22/04/18  3:30a   12.2   12.2   12.1    92   10.9   0.0   ---   0.00   0.0   ---   12.2   12.2   12.2  1019.2  0.00   0.0   0.043   0.000   21.2    43    8.1   19.9   8.24 1.1939    41.7   217    2     97.7   10 
22/04/18  3:40a   12.1   12.2   12.1    92   10.8   0.0   ---   0.00   0.0   ---   12.1   12.2   12.2  1019.2  0.00   0.0   0.044   0.000   21.3    43    8.2   20.0   8.24 1.1937    41.7   217    2     97.7   10 
22/04/18  3:50a   12.2   12.2   12.1    93   11.1   0.0   ---   0.00   0.0   ---   12.2   12.3   12.3  1019.2  0.00   0.0   0.043   0.000   21.2    44    8.5   20.0   8.35 1.1936    41.7   219    2     98.6   10 
22/04/18  4:00a   12.1   12.2   12.1    92   10.8   0.0   ---   0.00   0.0   ---   12.1   12.2   12.2  1019.2  0.00   0.0   0.044   0.000   21.2    43    8.1   19.9   8.24 1.1940    41.7   220    2     99.1   10 
22/04/18  4:10a   12.0   12.1   12.0    92   10.7   0.0   ---   0.00   0.0   ---   12.0   12.1   12.1  1019.2  0.00   0.0   0.044   0.000   21.1    43    8.0   19.8   8.25 1.1945    41.7   215    2     96.8   10 
22/04/18  4:20a   11.9   12.0   11.9    93   10.8   0.0   ---   0.00   0.0   ---   11.9   12.0   12.0  1019.6  0.00   0.0   0.045   0.000   21.1    43    8.0   19.8   8.25 1.1950    41.7   216    2     97.3   10 
22/04/18  4:30a   12.0   12.0   12.0    93   10.9   0.0   ---   0.00   0.0   ---   12.0   12.1   12.1  1019.7  0.00   0.0   0.044   0.000   21.0    43    7.9   19.7   8.25 1.1957    41.7   218    2     98.2   10 
22/04/18  4:40a   12.2   12.2   12.0    93   11.1   0.0   ---   0.00   0.0   ---   12.2   12.3   12.3  1019.7  0.00   0.0   0.043   0.000   20.9    43    7.9   19.7   8.25 1.1960    41.7   217    2     97.7   10 
22/04/18  4:50a   12.3   12.3   12.2    92   11.1   0.0   ---   0.00   0.0   ---   12.3   12.4   12.4  1019.8  0.00   0.0   0.042   0.000   20.9    43    7.9   19.7   8.25 1.1960    41.7   214    2     96.4   10 
22/04/18  5:00a   12.4   12.4   12.3    92   11.1   0.0   ---   0.00   0.0   ---   12.4   12.4   12.4  1019.8  0.00   0.0   0.041   0.000   20.8    43    7.8   19.6   8.25 1.1966    41.7   220    2     99.1   10 
22/04/18  5:10a   12.5   12.5   12.4    91   11.1   0.0   ---   0.00   0.0   ---   12.5   12.6   12.6  1019.8  0.00   0.0   0.041   0.000   20.8    44    8.1   19.7   8.35 1.1963    41.7   217    2     97.7   10 
22/04/18  5:20a   12.5   12.5   12.5    90   10.9   0.0   ---   0.00   0.0   ---   12.5   12.6   12.6  1020.1  0.00   0.0   0.041   0.000   20.7    44    8.0   19.6   8.35 1.1972    41.7   218    2     98.2   10 
22/04/18  5:30a   12.5   12.5   12.5    90   10.9   0.0   ---   0.00   0.0   ---   12.5   12.6   12.6  1020.1  0.00   0.0   0.041   0.000   20.7    44    8.0   19.6   8.35 1.1972    41.7   216    2     97.3   10 
22/04/18  5:40a   12.5   12.5   12.5    90   10.9   0.0   ---   0.00   0.0   ---   12.5   12.6   12.6  1020.1  0.00   0.0   0.041   0.000   20.7    44    8.0   19.6   8.35 1.1972    41.7   218    2     98.2   10 
22/04/18  5:50a   12.4   12.5   12.4    89   10.6   0.0   ---   0.00   0.0   ---   12.4   12.4   12.4  1020.2  0.00   0.0   0.041   0.000   20.6    44    7.9   19.5   8.35 1.1978    41.7   221    2     99.5   10 
22/04/18  6:00a   12.4   12.4   12.4    89   10.6   0.0   ---   0.00   0.0   ---   12.4   12.4   12.4  1020.5  0.00   0.0   0.041   0.000   20.6    44    7.9   19.5   8.35 1.1982    41.7   216    2     97.3   10 
22/04/18  6:10a   12.3   12.4   12.3    89   10.6   0.0   ---   0.00   0.0   ---   12.3   12.4   12.4  1020.5  0.00   0.0   0.042   0.000   20.6    44    7.9   19.4   8.35 1.1984    41.7   218    2     98.2   10 
22/04/18  6:20a   12.3   12.3   12.3    89   10.6   0.0   ---   0.00   0.0   ---   12.3   12.4   12.4  1020.6  0.00   0.0   0.042   0.000   20.6    44    7.9   19.4   8.35 1.1986    41.7   219    2     98.6   10 
22/04/18  6:30a   12.3   12.3   12.3    89   10.6   0.0   ---   0.00   0.0   ---   12.3   12.4   12.4  1020.7  0.00   0.0   0.042   0.000   20.6    44    7.9   19.5   8.35 1.1984    41.7   217    2     97.7   10 
22/04/18  6:40a   12.3   12.3   12.3    90   10.7   0.0   ---   0.00   0.0   ---   12.3   12.4   12.4  1020.7  0.00   0.0   0.042   0.000   20.6    44    7.9   19.5   8.35 1.1984    41.7   217    2     97.7   10 
22/04/18  6:50a   12.3   12.3   12.3    90   10.7   0.0   ---   0.00   0.0   ---   12.3   12.4   12.4  1020.7  0.00   0.0   0.042   0.000   20.6    44    7.9   19.5   8.35 1.1984    41.7   213    2     95.9   10 
22/04/18  7:00a   12.4   12.4   12.3    90   10.8   0.0   ---   0.00   0.0   ---   12.4   12.4   12.4  1020.8  0.00   0.0   0.041   0.000   20.6    44    7.9   19.4   8.35 1.1988    41.7   219    2     98.6   10 
22/04/18  7:10a   12.5   12.5   12.4    90   10.9   0.0   ---   0.00   0.0   ---   12.5   12.6   12.6  1020.8  0.00   0.0   0.041   0.000   20.6    44    7.9   19.4   8.35 1.1988    41.7   217    2     97.7   10 
22/04/18  7:20a   12.6   12.6   12.5    89   10.8   0.0    SE   0.00   1.6    SE   12.6   12.6   12.6  1021.3  0.00   0.0   0.040   0.000   20.6    44    7.9   19.4   8.35 1.1994    41.7   216    2     97.3   10 
22/04/18  7:30a   12.6   12.6   12.6    89   10.8   0.0   ---   0.00   0.0   ---   12.6   12.6   12.6  1021.4  0.00   0.0   0.040   0.000   20.6    44    7.9   19.4   8.35 1.1996    41.7   217    2     97.7   10 
22/04/18  7:40a   12.7   12.7   12.6    89   10.9   0.0   ---   0.00   0.0   ---   12.7   12.7   12.7  1021.4  0.00   0.0   0.039   0.000   20.6    44    7.9   19.4   8.35 1.1996    41.7   217    2     97.7   10 
22/04/18  7:50a   12.7   12.7   12.7    89   11.0   0.0   ---   0.00   0.0   ---   12.7   12.8   12.8  1021.5  0.00   0.0   0.039   0.000   20.6    44    7.9   19.4   8.35 1.1996    41.7   218    2     98.2   10 
22/04/18  8:00a   12.9   12.9   12.7    88   10.9   0.0   ---   0.00   0.0   ---   12.9   12.9   12.9  1021.7  0.00   0.0   0.038   0.000   20.6    44    7.9   19.5   8.35 1.1996    41.7   222    2    100.0   10 
22/04/18  8:10a   13.2   13.2   12.9    88   11.2   0.0   ---   0.00   0.0   ---   13.2   13.2   13.2  1021.7  0.00   0.0   0.036   0.000   20.7    44    8.0   19.6   8.35 1.1990    41.7   220    2     99.1   10 
22/04/18  8:20a   13.4   13.4   13.2    87   11.3   0.0   ---   0.00   0.0   ---   13.4   13.4   13.4  1021.7  0.00   0.0   0.034   0.000   20.8    44    8.1   19.7   8.35 1.1986    41.7   219    2     98.6   10 
22/04/18  8:30a   13.7   13.7   13.4    86   11.4   0.0   ---   0.00   0.0   ---   13.7   13.6   13.6  1021.9  0.00   0.0   0.032   0.000   21.0    43    7.9   19.7   8.25 1.1983    41.7   216    2     97.3   10 
22/04/18  8:40a   13.9   13.9   13.7    84   11.3   0.0   ---   0.00   0.0   ---   13.9   13.9   13.9  1021.9  0.00   0.0   0.030   0.000   21.1    43    8.0   19.8   8.25 1.1978    41.7   218    2     98.2   10 
22/04/18  8:50a   14.3   14.3   13.9    82   11.2   0.0   ---   0.00   0.0   ---   14.3   14.2   14.2  1021.9  0.00   0.0   0.028   0.000   21.2    43    8.1   19.9   8.24 1.1971    41.7   217    2     97.7   10 
22/04/18  9:00a   14.6   14.6   14.3    81   11.3   0.0    SE   0.00   1.6    SE   14.6   14.4   14.4  1021.8  0.00   0.0   0.026   0.000   21.3    43    8.2   20.0   8.24 1.1968    41.7   217    2     97.7   10 
22/04/18  9:10a   14.7   14.7   14.6    80   11.3   0.0   ---   0.00   0.0   ---   14.7   14.6   14.6  1021.8  0.00   0.0   0.025   0.000   21.3    43    8.2   20.0   8.24 1.1968    41.7   214    2     96.4   10 
22/04/18  9:20a   14.9   14.9   14.7    78   11.1   0.0    SE   0.00   3.2    SE   14.9   14.7   14.7  1021.8  0.00   0.0   0.024   0.000   21.4    43    8.3   20.2   8.23 1.1962    41.7   215    2     96.8   10 
22/04/18  9:30a   15.4   15.4   14.9    77   11.4   0.0    SE   0.00   1.6    SE   15.4   15.2   15.2  1021.6  0.00   0.0   0.020   0.000   21.5    43    8.4   20.3   8.22 1.1954    41.7   218    2     98.2   10 
22/04/18  9:40a   15.8   15.8   15.4    73   11.0   0.0    SE   0.00   4.8    SE   15.8   15.6   15.6  1021.6  0.00   0.0   0.017   0.000   21.7    43    8.5   20.5   8.21 1.1946    41.7   216    2     97.3   10 
22/04/18  9:50a   16.3   16.4   15.9    71   11.1   0.0     S   0.00   6.4     S   16.3   16.1   16.1  1021.4  0.00   0.0   0.014   0.000   21.9    43    8.8   20.9   8.19 1.1931    41.7   217    2     97.7   10 
22/04/18 10:00a   16.7   16.7   16.3    71   11.4   0.0     S   0.00   8.0     S   16.7   16.5   16.5  1021.4  0.00   0.0   0.011   0.000   22.2    42    8.6   21.2   8.01 1.1923    41.7   217    2     97.7   10 
22/04/18 10:10a   17.4   17.4   16.8    68   11.4   0.0   SSE   0.00   3.2   SSE   17.4   17.2   17.2  1021.4  0.00   0.0   0.007   0.000   22.3    42    8.8   21.4   8.01 1.1915    41.7   217    2     97.7   10 
22/04/18 10:20a   16.9   17.5   16.9    69   11.2   0.0   SSE   0.00  11.3   SSE   16.9   16.7   16.7  1021.1  0.00   0.0   0.010   0.000   22.3    42    8.8   21.4   8.01 1.1911    41.7   216    2     97.3   10 
22/04/18 10:30a   16.6   16.9   16.6    73   11.7   0.0   ---   0.00   0.0   ---   16.6   16.4   16.4  1021.2  0.00   0.0   0.012   0.000   22.3    42    8.8   21.4   8.01 1.1913    41.7   217    2     97.7   10 
22/04/18 10:40a   16.0   16.6   16.0    74   11.4   0.0    SE   0.00   3.2    SE   16.0   15.8   15.8  1021.2  0.00   0.0   0.016   0.000   22.2    42    8.7   21.3   8.01 1.1918    41.7   216    2     97.3   10 
22/04/18 10:50a   15.8   16.0   15.8    76   11.6   0.0    SE   0.00   1.6    SE   15.8   15.7   15.7  1021.1  0.00   0.0   0.017   0.000   22.2    43    9.0   21.3   8.17 1.1914    41.7   216    2     97.3   10 
22/04/18 11:00a   15.7   15.8   15.7    75   11.3   0.0    SE   0.00   1.6    SE   15.7   15.5   15.5  1021.2  0.00   0.0   0.018   0.000   22.2    43    9.0   21.3   8.17 1.1915    41.7   219    2     98.6   10 
22/04/18 11:10a   15.7   15.7   15.7    74   11.1   0.0   ---   0.00   0.0   ---   15.7   15.5   15.5  1021.2  0.00   0.0   0.018   0.000   22.2    43    9.0   21.3   8.17 1.1917    41.7   219    2     98.6   10 
22/04/18 11:20a   15.7   15.8   15.7    74   11.1   0.0   ---   0.00   0.0   ---   15.7   15.5   15.5  1021.0  0.00   0.0   0.018   0.000   22.2    43    9.0   21.3   8.17 1.1915    41.7   216    2     97.3   10 
22/04/18 11:30a   15.7   15.7   15.7    75   11.3   0.0   ---   0.00   0.0   ---   15.7   15.5   15.5  1020.9  0.00   0.0   0.018   0.000   21.9    43    8.8   20.9   8.19 1.1924    41.7   217    2     97.7   10 
22/04/18 11:40a   15.6   15.7   15.6    78   11.7   0.0   ---   0.00   0.0   ---   15.6   15.4   15.4  1020.9  0.00   0.0   0.019   0.000   21.9    43    8.8   20.9   8.19 1.1924    41.7   218    2     98.2   10 
22/04/18 11:50a   15.4   15.6   15.4    79   11.8   0.0   ---   0.00   0.0   ---   15.4   15.3   15.3  1020.6  0.00   0.0   0.020   0.000   21.8    43    8.7   20.8   8.20 1.1926    41.7   216    2     97.3   10 
22/04/18 12:00p   15.5   15.5   15.4    79   11.9   0.0   ---   0.00   0.0   ---   15.5   15.4   15.4  1020.3  0.00   0.0   0.020   0.000   21.8    43    8.7   20.8   8.20 1.1922    41.7   207    2     93.2   10 
22/04/18 12:10p   15.6   15.6   15.5    76   11.3   0.0   ---   0.00   0.0   ---   15.6   15.4   15.4  1020.3  0.00   0.0   0.019   0.000   21.9    43    8.8   20.9   8.19 1.1917    41.7   212    2     95.5   10 
22/04/18 12:20p   15.7   15.7   15.6    74   11.1   0.0   ---   0.00   0.0   ---   15.7   15.5   15.5  1020.3  0.00   0.0   0.018   0.000   22.1    43    8.9   21.1   8.18 1.1912    41.7   219    2     98.6   10 
22/04/18 12:30p   16.3   16.3   15.7    74   11.7   0.0   ---   0.00   0.0   ---   16.3   16.2   16.2  1019.9  0.00   0.0   0.014   0.000   22.2    43    9.0   21.3   8.17 1.1902    41.7   216    2     97.3   10 
22/04/18 12:40p   17.1   17.1   16.3    69   11.4   0.0    SE   0.00   4.8    SE   17.1   16.9   16.9  1019.9  0.00   0.0   0.008   0.000   22.3    43    9.1   21.5   8.16 1.1894    41.7   219    2     98.6   10 
22/04/18 12:50p   17.7   17.7   17.1    67   11.5   0.0   ---   0.00   0.0   ---   17.7   17.4   17.4  1019.5  0.00   0.0   0.005   0.000   22.4    43    9.2   21.7   8.15 1.1884    41.7   219    2     98.6   10 
22/04/18  1:00p   18.5   18.5   17.7    66   12.0   0.0    SE   0.00   1.6    SE   18.5   18.4   18.4  1018.9  0.00   0.0   0.000   0.001   22.6    44    9.7   22.0   8.30 1.1865    41.7   219    2     98.6   10 
22/04/18  1:10p   19.1   19.1   18.5    61   11.4   0.0    SE   0.00   4.8    SE   19.1   18.8   18.8  1018.9  0.00   0.0   0.000   0.005   22.8    43    9.6   22.3   8.13 1.1858    41.7   212    2     95.5   10 
22/04/18  1:20p   19.2   19.2   19.1    60   11.2   0.0   ---   0.00   0.0   ---   19.2   18.8   18.8  1018.9  0.00   0.0   0.000   0.006   23.0    43    9.7   22.5   8.11 1.1850    41.7   216    2     97.3   10 
22/04/18  1:30p   18.8   19.2   18.8    62   11.4   0.0   ---   0.00   0.0   ---   18.8   18.6   18.6  1018.7  0.00   0.0   0.000   0.003   23.0    43    9.7   22.5   8.11 1.1848    41.7   217    2     97.7   10 
22/04/18  1:40p   18.8   18.9   18.8    61   11.1   0.0   ---   0.00   0.0   ---   18.8   18.5   18.5  1018.7  0.00   0.0   0.000   0.003   23.0    44   10.1   22.5   8.28 1.1845    41.7   205    2     92.3   10 
22/04/18  1:50p   18.8   18.9   18.8    61   11.1   0.0   ---   0.00   0.0   ---   18.8   18.5   18.5  1018.7  0.00   0.0   0.000   0.003   23.0    42    9.4   22.4   7.98 1.1851    41.7   218    2     98.2   10 
22/04/18  2:00p   18.7   18.8   18.7    63   11.5   0.0   ---   0.00   0.0   ---   18.7   18.5   18.5  1018.6  0.00   0.0   0.000   0.003   23.1    42    9.5   22.6   7.98 1.1844    41.7   217    2     97.7   10 
22/04/18  2:10p   18.7   18.7   18.7    63   11.5   0.0   ---   0.00   0.0   ---   18.7   18.4   18.4  1018.6  0.00   0.0   0.000   0.002   23.1    42    9.5   22.6   7.98 1.1844    41.7   217    2     97.7   10 
22/04/18  2:20p   18.6   18.7   18.6    62   11.1   0.0   ---   0.00   0.0   ---   18.6   18.2   18.2  1018.7  0.00   0.0   0.000   0.002   23.1    42    9.5   22.6   7.98 1.1845    41.7   217    2     97.7   10 
22/04/18  2:30p   18.7   18.7   18.6    61   11.0   0.0   ---   0.00   0.0   ---   18.7   18.4   18.4  1018.5  0.00   0.0   0.000   0.003   23.2    43    9.9   22.7   8.10 1.1837    41.7   218    2     98.2   10 
22/04/18  2:40p   18.9   18.9   18.7    60   11.0   0.0    SE   0.00   1.6    SE   18.9   18.6   18.6  1018.5  0.00   0.0   0.000   0.004   23.3    42    9.6   22.8   7.97 1.1835    41.7   194    2     87.4   10 
22/04/18  2:50p   19.0   19.0   18.9    59   10.8   0.0   ---   0.00   0.0   ---   19.0   18.6   18.6  1018.6  0.00   0.0   0.000   0.005   23.4    42    9.7   22.9   7.97 1.1831    41.7   216    2     97.3   10 
22/04/18  3:00p   19.3   19.3   19.0    58   10.8   0.0   ---   0.00   0.0   ---   19.3   18.9   18.9  1018.4  0.00   0.0   0.000   0.007   23.6    42    9.9   23.2   7.96 1.1820    41.7   215    2     96.8   10 
22/04/18  3:10p   19.9   19.9   19.3    56   10.9   0.0   ---   0.00   0.0   ---   19.9   19.6   19.6  1018.4  0.00   0.0   0.000   0.011   23.6    42    9.9   23.2   7.96 1.1820    41.7   213    2     95.9   10 
22/04/18  3:20p   19.9   19.9   19.9    56   10.9   0.0    SE   0.00   1.6    SE   19.9   19.6   19.6  1018.1  0.00   0.0   0.000   0.011   23.7    42   10.0   23.3   7.96 1.1811    41.7   216    2     97.3   10 
22/04/18  3:30p   19.6   19.9   19.6    56   10.5   0.0   ---   0.00   0.0   ---   19.6   19.1   19.1  1018.3  0.00   0.0   0.000   0.008   23.8    42   10.1   23.4   7.95 1.1808    41.7   215    2     96.8   10 
22/04/18  3:40p   19.4   19.6   19.4    57   10.6   0.0   ---   0.00   0.0   ---   19.4   18.9   18.9  1018.3  0.00   0.0   0.000   0.007   23.9    42   10.2   23.6   7.95 1.1800    41.7   213    2     95.9   10 
22/04/18  3:50p   19.3   19.4   19.3    57   10.5   0.0   ---   0.00   0.0   ---   19.3   18.8   18.8  1018.4  0.00   0.0   0.000   0.007   24.1    42   10.3   23.7   7.94 1.1796    41.7   212    2     95.5   10 
22/04/18  4:00p   19.3   19.3   19.3    57   10.5   0.0   ---   0.00   0.0   ---   19.3   18.8   18.8  1018.1  0.00   0.0   0.000   0.007   23.9    41    9.9   23.6   7.75 1.1802    41.7   207    2     93.2   10 
22/04/18  4:10p   19.1   19.3   19.1    58   10.6   0.0   ---   0.00   0.0   ---   19.1   18.7   18.7  1018.1  0.00   0.0   0.000   0.005   24.1    41   10.0   23.7   7.75 1.1796    41.7   191    2     86.0   10 
22/04/18  4:20p   18.9   19.1   18.9    58   10.5   0.0   ---   0.00   0.0   ---   18.9   18.5   18.5  1018.2  0.00   0.0   0.000   0.004   23.9    41    9.9   23.6   7.75 1.1802    41.7   201    2     90.5   10 
22/04/18  4:30p   18.7   18.9   18.7    60   10.8   0.0   ---   0.00   0.0   ---   18.7   18.3   18.3  1018.1  0.00   0.0   0.000   0.003   23.9    41    9.9   23.6   7.75 1.1802    41.7   212    2     95.5   10 
22/04/18  4:40p   18.7   18.7   18.7    60   10.7   0.0   ---   0.00   0.0   ---   18.7   18.3   18.3  1018.1  0.00   0.0   0.000   0.002   23.9    41    9.9   23.6   7.75 1.1802    41.7   214    2     96.4   10 
22/04/18  4:50p   18.5   18.7   18.5    63   11.3   0.0    SE   0.00   1.6    SE   18.5   18.2   18.2  1018.1  0.00   0.0   0.000   0.001   23.9    41    9.8   23.5   7.75 1.1804    41.7   199    2     89.6   10 
22/04/18  5:00p   18.0   18.5   18.0    68   12.0   0.0    SE   0.00   4.8    SE   18.0   17.9   17.9  1018.2  0.00   0.0   0.002   0.000   23.8    41    9.7   23.4   7.76 1.1811    41.7   218    2     98.2   10 
22/04/18  5:10p   17.4   17.9   17.4    71   12.1   0.0    SE   0.00   1.6    SE   17.4   17.3   17.3  1018.2  0.00   0.0   0.007   0.000   23.7    41    9.6   23.2   7.77 1.1816    41.7   218    2     98.2   10 
22/04/18  5:20p   16.9   17.4   16.9    72   11.9   0.0   ---   0.00   0.0   ---   16.9   16.8   16.8  1018.4  0.00   0.0   0.010   0.000   23.6    42    9.9   23.2   7.96 1.1820    41.7   219    2     98.6   10 
22/04/18  5:30p   16.7   16.9   16.7    71   11.4   0.0   ---   0.00   0.0   ---   16.7   16.5   16.5  1018.5  0.00   0.0   0.011   0.000   23.4    42    9.7   22.9   7.97 1.1829    41.7   220    2     99.1   10 
22/04/18  5:40p   16.4   16.7   16.4    72   11.4   0.0   ---   0.00   0.0   ---   16.4   16.2   16.2  1018.5  0.00   0.0   0.013   0.000   23.4    42    9.7   22.9   7.97 1.1829    41.7   220    2     99.1   10 
22/04/18  5:50p   16.1   16.3   16.1    72   11.1   0.0   ---   0.00   0.0   ---   16.1   15.8   15.8  1018.7  0.00   0.0   0.015   0.000   23.4    43   10.1   23.0   8.09 1.1829    41.7   208    2     93.7   10 
22/04/18  6:00p   15.7   16.1   15.7    74   11.1   0.0   ---   0.00   0.0   ---   15.7   15.5   15.5  1018.8  0.00   0.0   0.018   0.000   23.3    43   10.0   22.8   8.09 1.1835    41.7   215    2     96.8   10 
22/04/18  6:10p   15.4   15.7   15.4    76   11.2   0.0   ---   0.00   0.0   ---   15.4   15.2   15.2  1018.8  0.00   0.0   0.020   0.000   23.3    43   10.0   22.8   8.09 1.1835    41.7   220    2     99.1   10 
22/04/18  6:20p   15.2   15.4   15.2    78   11.4   0.0   ---   0.00   0.0   ---   15.2   15.0   15.0  1018.9  0.00   0.0   0.022   0.000   23.2    43    9.9   22.7   8.10 1.1842    41.7   214    2     96.4   10 
22/04/18  6:30p   14.9   15.2   14.9    80   11.5   0.0   ---   0.00   0.0   ---   14.9   14.8   14.8  1019.3  0.00   0.0   0.024   0.000   23.1    43    9.8   22.6   8.11 1.1849    41.7   218    2     98.2   10 
22/04/18  6:40p   14.7   14.9   14.7    81   11.5   0.0   ---   0.00   0.0   ---   14.7   14.6   14.6  1019.3  0.00   0.0   0.025   0.000   23.0    44   10.1   22.5   8.28 1.1851    41.7   220    2     99.1   10 
22/04/18  6:50p   14.5   14.7   14.5    81   11.3   0.0   ---   0.00   0.0   ---   14.5   14.4   14.4  1019.4  0.00   0.0   0.027   0.000   22.9    44   10.0   22.4   8.29 1.1858    41.7   215    2     96.8   10 
22/04/18  7:00p   14.4   14.5   14.4    82   11.4   0.0   ---   0.00   0.0   ---   14.4   14.3   14.3  1019.4  0.00   0.0   0.027   0.000   22.8    44    9.9   22.3   8.29 1.1861    41.7   217    2     97.7   10 
22/04/18  7:10p   14.2   14.3   14.2    82   11.2   0.0   ---   0.00   0.0   ---   14.2   14.1   14.1  1019.4  0.00   0.0   0.029   0.000   22.7    44    9.8   22.2   8.29 1.1866    41.7   215    2     96.8   10 
22/04/18  7:20p   14.1   14.2   14.1    83   11.2   0.0   ---   0.00   0.0   ---   14.1   13.9   13.9  1019.4  0.00   0.0   0.030   0.000   22.6    45   10.1   22.0   8.45 1.1869    41.7   216    2     97.3   10 
22/04/18  7:30p   13.8   14.1   13.8    83   10.9   0.0   ---   0.00   0.0   ---   13.8   13.7   13.7  1019.5  0.00   0.0   0.032   0.000   22.6    45   10.1   22.0   8.45 1.1869    41.7   217    2     97.7   10 
22/04/18  7:40p   13.7   13.8   13.7    84   11.1   0.0   ---   0.00   0.0   ---   13.7   13.7   13.7  1019.5  0.00   0.0   0.032   0.000   22.6    45   10.1   22.0   8.45 1.1869    41.7   216    2     97.3   10 
22/04/18  7:50p   13.6   13.7   13.6    85   11.1   0.0   ---   0.00   0.0   ---   13.6   13.5   13.5  1019.5  0.00   0.0   0.033   0.000   22.6    45   10.1   22.0   8.45 1.1869    41.7   215    2     96.8   10 
22/04/18  8:00p   13.5   13.6   13.5    85   11.0   0.0   ---   0.00   0.0   ---   13.5   13.4   13.4  1019.8  0.00   0.0   0.034   0.000   22.5    45   10.0   21.8   8.45 1.1878    41.7   218    2     98.2   10 
22/04/18  8:10p   13.2   13.5   13.2    86   10.9   0.0   ---   0.00   0.0   ---   13.2   13.2   13.2  1019.8  0.00   0.0   0.035   0.000   22.4    45    9.9   21.8   8.45 1.1881    41.7   215    2     96.8   10 
22/04/18  8:20p   12.9   13.2   12.9    86   10.6   0.0   ---   0.00   0.0   ---   12.9   12.8   12.8  1019.6  0.00   0.0   0.038   0.000   22.3    45    9.8   21.6   8.45 1.1884    41.7   218    2     98.2   10 
22/04/18  8:30p   12.8   12.9   12.8    87   10.7   0.0   ---   0.00   0.0   ---   12.8   12.8   12.8  1019.9  0.00   0.0   0.038   0.000   22.2    45    9.7   21.3   8.45 1.1896    41.7   216    2     97.3   10 
22/04/18  8:40p   12.8   12.8   12.8    88   10.9   0.0   ---   0.00   0.0   ---   12.8   12.8   12.8  1019.9  0.00   0.0   0.038   0.000   22.2    46   10.0   21.5   8.61 1.1890    41.7   220    2     99.1   10 
22/04/18  8:50p   12.8   12.8   12.8    89   11.1   0.0   ---   0.00   0.0   ---   12.8   12.9   12.9  1019.9  0.00   0.0   0.038   0.000   22.2    45    9.7   21.3   8.45 1.1896    41.7   217    2     97.7   10 
22/04/18  9:00p   12.7   12.8   12.7    89   11.0   0.0   ---   0.00   0.0   ---   12.7   12.8   12.8  1019.9  0.00   0.0   0.039   0.000   22.1    45    9.6   21.2   8.45 1.1901    41.7   215    2     96.8   10 
22/04/18  9:10p   12.7   12.7   12.7    90   11.1   0.0   ---   0.00   0.0   ---   12.7   12.7   12.7  1019.9  0.00   0.0   0.039   0.000   22.1    46    9.9   21.2   8.62 1.1898    41.7   219    2     98.6   10 
22/04/18  9:20p   12.6   12.7   12.6    90   11.0   0.0   ---   0.00   0.0   ---   12.6   12.6   12.6  1019.6  0.00   0.0   0.040   0.000   22.1    46    9.9   21.2   8.62 1.1895    41.7   219    2     98.6   10 
22/04/18  9:30p   12.5   12.6   12.5    91   11.1   0.0   ---   0.00   0.0   ---   12.5   12.6   12.6  1019.7  0.00   0.0   0.041   0.000   21.9    46    9.8   21.1   8.62 1.1901    41.7   215    2     96.8   10 
22/04/18  9:40p   12.3   12.5   12.3    91   10.9   0.0   ---   0.00   0.0   ---   12.3   12.4   12.4  1019.7  0.00   0.0   0.042   0.000   21.9    46    9.8   21.1   8.62 1.1901    41.7   215    2     96.8   10 
22/04/18  9:50p   12.2   12.4   12.2    91   10.8   0.0   ---   0.00   0.0   ---   12.2   12.3   12.3  1019.7  0.00   0.0   0.042   0.000   21.9    46    9.8   21.1   8.62 1.1902    41.7   218    2     98.2   10 
22/04/18 10:00p   12.2   12.2   12.2    91   10.7   0.0   ---   0.00   0.0   ---   12.2   12.2   12.2  1019.8  0.00   0.0   0.043   0.000   21.9    46    9.8   21.1   8.62 1.1903    41.7   213    2     95.9   10 
22/04/18 10:10p   12.2   12.2   12.2    92   10.9   0.0   ---   0.00   0.0   ---   12.2   12.2   12.2  1019.8  0.00   0.0   0.043   0.000   22.1    46    9.9   21.2   8.62 1.1897    41.7   215    2     96.8   10 
22/04/18 10:20p   12.2   12.2   12.2    92   11.0   0.0   ---   0.00   0.0   ---   12.2   12.3   12.3  1020.1  0.00   0.0   0.042   0.000   22.1    46    9.9   21.2   8.62 1.1900    41.7   214    2     96.4   10 
22/04/18 10:30p   12.2   12.2   12.2    92   11.0   0.0   ---   0.00   0.0   ---   12.2   12.3   12.3  1019.9  0.00   0.0   0.042   0.000   22.1    46    9.9   21.2   8.62 1.1899    41.7   217    2     97.7   10 
22/04/18 10:40p   12.1   12.2   12.1    92   10.8   0.0   ---   0.00   0.0   ---   12.1   12.2   12.2  1019.9  0.00   0.0   0.044   0.000   21.9    46    9.8   21.1   8.62 1.1904    41.7   218    2     98.2   10 
22/04/18 10:50p   12.0   12.1   12.0    93   10.9   0.0   ---   0.00   0.0   ---   12.0   12.1   12.1  1019.8  0.00   0.0   0.044   0.000   21.9    46    9.8   21.1   8.62 1.1903    41.7   216    2     97.3   10 
22/04/18 11:00p   11.8   12.0   11.8    93   10.7   0.0   ---   0.00   0.0   ---   11.8   11.9   11.9  1020.0  0.00   0.0   0.045   0.000   21.9    46    9.8   21.1   8.62 1.1905    41.7   212    2     95.5   10 
22/04/18 11:10p   11.8   11.8   11.8    93   10.7   0.0   ---   0.00   0.0   ---   11.8   11.9   11.9  1020.0  0.00   0.0   0.045   0.000   21.9    46    9.8   21.1   8.62 1.1905    41.7   214    2     96.4   10 
22/04/18 11:20p   12.1   12.1   11.8    94   11.1   0.0   ---   0.00   0.0   ---   12.1   12.2   12.2  1019.7  0.00   0.0   0.044   0.000   21.8    46    9.7   20.9   8.62 1.1907    41.7   217    2     97.7   10 
22/04/18 11:30p   12.3   12.3   12.1    95   11.6   0.0   ---   0.00   0.0   ---   12.3   12.4   12.4  1019.3  0.00   0.0   0.042   0.000   21.8    46    9.7   20.9   8.62 1.1902    41.7   214    2     96.4   10 
22/04/18 11:40p   12.2   12.3   12.2    95   11.4   0.0   ---   0.00   0.0   ---   12.2   12.3   12.3  1019.3  0.00   0.0   0.042   0.000   21.8    45    9.3   20.8   8.45 1.1908    41.7   217    2     97.7   10 
22/04/18 11:50p   12.2   12.2   12.2    95   11.4   0.0   ---   0.00   0.0   ---   12.2   12.3   12.3  1019.3  0.00   0.0   0.042   0.000   21.7    45    9.2   20.6   8.45 1.1913    41.7   220    2     99.1   10 
23/04/18 12:00a   12.2   12.2   12.2    95   11.4   0.0   ---   0.00   0.0   ---   12.2   12.3   12.3  1019.1  0.00   0.0   0.043   0.000   21.6    46    9.4   20.5   8.63 1.1914    41.7   217    2     97.7   10 
23/04/18 12:10a   11.9   12.1   11.9    95   11.1   0.0   ---   0.00   0.0   ---   11.9   12.1   12.1  1019.1  0.00   0.0   0.045   0.000   21.5    45    9.1   20.4   8.45 1.1919    41.7   213    2     95.9   10 
23/04/18 12:20a   11.8   11.9   11.8    95   11.0   0.0   ---   0.00   0.0   ---   11.8   11.9   11.9  1018.6  0.00   0.0   0.046   0.000   21.4    46    9.3   20.3   8.64 1.1915    41.7   220    2     99.1   10 
23/04/18 12:30a   11.6   11.8   11.6    95   10.8   0.0   ---   0.00   0.0   ---   11.6   11.8   11.8  1018.5  0.00   0.0   0.047   0.000   21.3    46    9.2   20.2   8.64 1.1919    41.7   221    2     99.5   10 
23/04/18 12:40a   11.4   11.6   11.4    95   10.7   0.0   ---   0.00   0.0   ---   11.4   11.6   11.6  1018.5  0.00   0.0   0.048   0.000   21.1    45    8.7   19.9   8.45 1.1930    41.7   215    2     96.8   10 
23/04/18 12:50a   11.3   11.4   11.3    95   10.5   0.0   ---   0.00   0.0   ---   11.3   11.4   11.4  1018.6  0.00   0.0   0.049   0.000   21.0    46    8.9   19.9   8.65 1.1934    41.7   215    2     96.8   10 
23/04/18  1:00a   11.2   11.3   11.2    96   10.6   0.0   ---   0.00   0.0   ---   11.2   11.3   11.3  1018.5  0.00   0.0   0.050   0.000   20.9    46    8.9   19.8   8.65 1.1936    41.7   216    2     97.3   10 
23/04/18  1:10a   11.3   11.3   11.2    96   10.7   0.0   ---   0.00   0.0   ---   11.3   11.5   11.5  1018.5  0.00   0.0   0.049   0.000   20.8    46    8.8   19.8   8.65 1.1941    41.7   219    2     98.6   10 
23/04/18  1:20a    9.8   11.3    9.8    93    8.8   0.0   ---   0.00   0.0   ---    9.8   10.1   10.1  1018.2  0.00   0.0   0.059   0.000   20.7    45    8.4   19.6   8.46 1.1946    41.7   219    2     98.6   10 
23/04/18  1:30a    9.8    9.8    9.7    96    9.2   0.0   ---   0.00   0.0   ---    9.8   10.1   10.1  1018.3  0.00   0.0   0.059   0.000   20.6    46    8.6   19.6   8.65 1.1950    41.7   217    2     97.7   10 
23/04/18  1:40a   10.3   10.3    9.9    96    9.7   0.0   ---   0.00   0.0   ---   10.3   10.6   10.6  1018.3  0.00   0.0   0.056   0.000   20.4    46    8.4   19.4   8.65 1.1958    41.7   218    2     98.2   10 
23/04/18  1:50a   10.6   10.6   10.3    97   10.2   0.0   ---   0.00   0.0   ---   10.6   10.9   10.9  1018.2  0.00   0.0   0.054   0.000   20.3    46    8.3   19.3   8.65 1.1962    41.7   218    2     98.2   10 
23/04/18  2:00a   10.8   10.8   10.6    97   10.4   0.0   ---   0.00   0.0   ---   10.8   11.1   11.1  1018.2  0.00   0.0   0.052   0.000   20.3    46    8.3   19.3   8.65 1.1962    41.7   215    2     96.8   10 
23/04/18  2:10a   11.0   11.0   10.8    97   10.5   0.0   ---   0.00   0.0   ---   11.0   11.2   11.2  1018.2  0.00   0.0   0.051   0.000   20.3    46    8.3   19.3   8.65 1.1964    41.7   221    2     99.5   10 
23/04/18  2:20a   11.0   11.1   11.0    97   10.5   0.0   ---   0.00   0.0   ---   11.0   11.2   11.2  1018.0  0.00   0.0   0.051   0.000   20.3    46    8.3   19.3   8.65 1.1962    41.7   220    2     99.1   10 
23/04/18  2:30a   10.8   11.0   10.8    97   10.4   0.0   ---   0.00   0.0   ---   10.8   11.1   11.1  1017.9  0.00   0.0   0.052   0.000   20.2    46    8.2   19.2   8.65 1.1966    41.7   222    2    100.0   10 
23/04/18  2:40a   10.8   10.8   10.8    97   10.4   0.0   ---   0.00   0.0   ---   10.8   11.1   11.1  1017.9  0.00   0.0   0.052   0.000   20.1    46    8.1   19.1   8.65 1.1972    41.7   217    2     97.7   10 
23/04/18  2:50a   10.8   10.9   10.8    97   10.4   0.0   ---   0.00   0.0   ---   10.8   11.1   11.1  1017.5  0.00   0.0   0.052   0.000   20.0    46    8.0   19.1   8.65 1.1971    41.7   219    2     98.6   10 
23/04/18  3:00a   10.4   10.8   10.4    96    9.8   0.0   ---   0.00   0.0   ---   10.4   10.7   10.7  1017.5  0.00   0.0   0.055   0.000   19.9    46    7.9   18.9   8.65 1.1976    41.7   214    2     96.4   10 
23/04/18  3:10a    9.6   10.4    9.6    95    8.8   0.0   ---   0.00   0.0   ---    9.6    9.9    9.9  1017.5  0.00   0.0   0.061   0.000   19.9    46    7.9   18.9   8.65 1.1976    41.7   218    2     98.2   10 
23/04/18  3:20a    9.4    9.6    9.4    96    8.8   0.0   ---   0.00   0.0   ---    9.4    9.7    9.7  1017.5  0.00   0.0   0.062   0.000   19.8    46    7.8   18.8   8.65 1.1982    41.7   219    2     98.6   10 
23/04/18  3:30a    9.4    9.4    9.4    97    9.0   0.0   ---   0.00   0.0   ---    9.4    9.7    9.7  1017.5  0.00   0.0   0.062   0.000   19.8    46    7.8   18.8   8.65 1.1982    41.7   217    2     97.7   10 
23/04/18  3:40a    9.8    9.8    9.4    97    9.3   0.0   ---   0.00   0.0   ---    9.8   10.1   10.1  1017.5  0.00   0.0   0.059   0.000   19.8    45    7.5   18.8   8.50 1.1984    41.7   218    2     98.2   10 
23/04/18  3:50a    9.8    9.8    9.8    97    9.3   0.0   ---   0.00   0.0   ---    9.8   10.1   10.1  1017.5  0.00   0.0   0.059   0.000   19.7    46    7.8   18.8   8.65 1.1983    41.7   218    2     98.2   10 
23/04/18  4:00a    9.6    9.8    9.6    97    9.2   0.0   ---   0.00   0.0   ---    9.6    9.9    9.9  1017.5  0.00   0.0   0.061   0.000   19.7    46    7.8   18.8   8.65 1.1983    41.7   215    2     96.8   10 
23/04/18  4:10a    9.2    9.6    9.2    96    8.6   0.0   ---   0.00   0.0   ---    9.2    9.5    9.5  1017.5  0.00   0.0   0.063   0.000   19.6    46    7.7   18.6   8.65 1.1989    41.7   218    2     98.2   10 
23/04/18  4:20a    9.1    9.2    9.1    97    8.7   0.0   ---   0.00   0.0   ---    9.1    9.4    9.4  1017.9  0.00   0.0   0.064   0.000   19.5    46    7.6   18.5   8.65 1.1999    41.7   220    2     99.1   10 
23/04/18  4:30a    9.1    9.2    9.1    97    8.7   0.0   ---   0.00   0.0   ---    9.1    9.4    9.4  1017.9  0.00   0.0   0.064   0.000   19.4    46    7.5   18.4   8.65 1.2002    41.7   219    2     98.6   10 
23/04/18  4:40a    8.4    9.2    8.4    96    7.8   0.0   ---   0.00   0.0   ---    8.4    8.6    8.6  1017.9  0.00   0.0   0.069   0.000   19.4    46    7.5   18.4   8.65 1.2002    41.7   215    2     96.8   10 
23/04/18  4:50a    8.6    8.6    8.4    97    8.1   0.0   ---   0.00   0.0   ---    8.6    8.8    8.8  1018.1  0.00   0.0   0.068   0.000   19.3    45    7.1   18.3   8.51 1.2012    41.7   215    2     96.8   10 
23/04/18  5:00a    8.7    8.8    8.6    98    8.4   0.0   ---   0.00   0.0   ---    8.7    9.0    9.0  1018.0  0.00   0.0   0.067   0.000   19.3    45    7.0   18.2   8.52 1.2014    41.7   220    2     99.1   10 
23/04/18  5:10a    8.7    8.8    8.7    98    8.4   0.0   ---   0.00   0.0   ---    8.7    9.0    9.0  1018.0  0.00   0.0   0.067   0.000   19.2    46    7.3   18.1   8.65 1.2017    41.7   217    2     97.7   10 
23/04/18  5:20a    8.7    8.8    8.7    98    8.4   0.0   ---   0.00   0.0   ---    8.7    9.0    9.0  1018.3  0.00   0.0   0.067   0.000   19.1    46    7.2   18.0   8.65 1.2026    41.7   213    2     95.9   10 
23/04/18  5:30a    7.8    8.7    7.8    96    7.2   0.0   ---   0.00   0.0   ---    7.8    8.0    8.0  1018.5  0.00   0.0   0.073   0.000   19.1    46    7.2   18.0   8.65 1.2028    41.7   213    2     95.9   10 
23/04/18  5:40a    7.9    7.9    7.7    97    7.4   0.0   ---   0.00   0.0   ---    7.9    8.1    8.1  1018.5  0.00   0.0   0.073   0.000   19.0    45    6.8   17.8   8.53 1.2033    41.7   219    2     98.6   10 
23/04/18  5:50a    7.9    7.9    7.9    98    7.6   0.0   ---   0.00   0.0   ---    7.9    8.2    8.2  1018.4  0.00   0.0   0.072   0.000   18.9    45    6.7   17.7   8.53 1.2038    41.7   215    2     96.8   10 
23/04/18  6:00a    8.1    8.1    7.9    98    7.8   0.0   ---   0.00   0.0   ---    8.1    8.3    8.3  1018.8  0.00   0.0   0.071   0.000   18.9    46    7.0   17.8   8.65 1.2040    41.7   214    2     96.4   10 
23/04/18  6:10a    7.9    8.1    7.9    98    7.6   0.0   ---   0.00   0.0   ---    7.9    8.2    8.2  1018.8  0.00   0.0   0.072   0.000   18.7    46    6.9   17.6   8.65 1.2048    41.7   218    2     98.2   10 
23/04/18  6:20a    8.1    8.1    7.9    99    8.0   0.0   ---   0.00   0.0   ---    8.1    8.3    8.3  1019.0  0.00   0.0   0.071   0.000   18.7    46    6.9   17.6   8.65 1.2050    41.7   215    2     96.8   10 
23/04/18  6:30a    8.1    8.1    8.1    98    7.8   0.0   ---   0.00   0.0   ---    8.1    8.3    8.3  1019.0  0.00   0.0   0.071   0.000   18.6    46    6.8   17.4   8.65 1.2056    41.7   210    2     94.6   10 
23/04/18  6:40a    8.2    8.2    8.1    99    8.1   0.0   ---   0.00   0.0   ---    8.2    8.4    8.4  1019.0  0.00   0.0   0.070   0.000   18.6    45    6.4   17.4   8.54 1.2058    41.7   212    2     95.5   10 
23/04/18  6:50a    8.4    8.4    8.2   100    8.4   0.0   ---   0.00   0.0   ---    8.4    8.7    8.7  1019.1  0.00   0.0   0.069   0.000   18.6    45    6.4   17.3   8.54 1.2062    41.7   219    2     98.6   10 
23/04/18  7:00a    8.6    8.6    8.4   100    8.6   0.0   ---   0.00   0.0   ---    8.6    8.8    8.8  1019.3  0.00   0.0   0.068   0.000   18.6    45    6.4   17.3   8.54 1.2065    41.7   219    2     98.6   10 
23/04/18  7:10a    8.6    8.6    8.6   100    8.6   0.0   ---   0.00   0.0   ---    8.6    8.9    8.9  1019.3  0.00   0.0   0.068   0.000   18.6    46    6.7   17.4   8.65 1.2062    41.7   214    2     96.4   10 
23/04/18  7:20a    8.8    8.8    8.6   100    8.8   0.0   ---   0.00   0.0   ---    8.8    9.1    9.1  1019.4  0.00   0.0   0.066   0.000   18.6    45    6.4   17.3   8.54 1.2066    41.7   218    2     98.2   10 
23/04/18  7:30a    9.3    9.3    8.8   100    9.3   0.0   ---   0.00   0.0   ---    9.3    9.6    9.6  1019.7  0.00   0.0   0.063   0.000   18.6    46    6.8   17.4   8.65 1.2064    41.7   217    2     97.7   10 
23/04/18  7:40a    9.4    9.4    9.3   100    9.4   0.0   ---   0.00   0.0   ---    9.4    9.8    9.8  1019.7  0.00   0.0   0.062   0.000   18.8    45    6.6   17.7   8.53 1.2056    41.7   218    2     98.2   10 
23/04/18  7:50a    9.9    9.9    9.4   100    9.9   0.0   ---   0.00   0.0   ---    9.9   10.3   10.3  1019.6  0.00   0.0   0.058   0.000   18.9    46    7.0   17.8   8.65 1.2050    41.7   212    2     95.5   10 
23/04/18  8:00a   10.3   10.3    9.9   100   10.3   0.0   ---   0.00   0.0   ---   10.3   10.7   10.7  1019.8  0.00   0.0   0.056   0.000   19.0    46    7.1   17.9   8.65 1.2046    41.7   218    2     98.2   10 
23/04/18  8:10a   10.7   10.8   10.3   100   10.7   0.0   ---   0.00   0.0   ---   10.7   11.0   11.0  1019.8  0.00   0.0   0.053   0.000   19.0    45    6.8   17.8   8.53 1.2049    41.7   215    2     96.8   10 
23/04/18  8:20a   10.6   10.8   10.5   100   10.6   0.0   ---   0.00   0.0   ---   10.6   10.9   10.9  1019.9  0.00   0.0   0.054   0.000   19.1    46    7.2   18.0   8.65 1.2045    41.7   209    2     94.1   10 
23/04/18  8:30a   11.0   11.0   10.6   100   11.0   0.0   ---   0.00   0.0   ---   11.0   11.3   11.3  1020.1  0.00   0.0   0.051   0.000   19.3    46    7.4   18.2   8.65 1.2036    41.7   217    2     97.7   10 
23/04/18  8:40a   11.3   11.3   11.0   100   11.3   0.0   ---   0.00   0.0   ---   11.3   11.6   11.6  1020.1  0.00   0.0   0.049   0.000   19.3    46    7.4   18.3   8.65 1.2033    41.7   214    2     96.4   10 
23/04/18  8:50a   11.7   11.8   11.3   100   11.7   0.0   ---   0.00   0.0   ---   11.7   11.9   11.9  1019.8  0.00   0.0   0.046   0.000   19.6    45    7.3   18.6   8.50 1.2020    41.7   217    2     97.7   10 
23/04/18  9:00a   12.0   12.1   11.7   100   12.0   0.0    SE   0.00   1.6    SE   12.0   12.2   12.2  1020.1  0.00   0.0   0.044   0.000   19.9    44    7.3   18.8   8.35 1.2012    41.7   218    2     98.2   10 
23/04/18  9:10a   12.6   12.6   12.1   100   12.6   0.0   ---   0.00   0.0   ---   12.6   12.8   12.8  1020.1  0.00   0.0   0.040   0.000   20.1    44    7.4   19.0   8.35 1.2004    41.7   214    2     96.4   10 
23/04/18  9:20a   12.9   12.9   12.6    99   12.7   0.0   ---   0.00   0.0   ---   12.9   13.1   13.1  1020.1  0.00   0.0   0.038   0.000   20.2    43    7.2   19.0   8.25 1.2002    41.7   216    2     97.3   10 
23/04/18  9:30a   13.3   13.3   12.9    96   12.7   0.0   ---   0.00   0.0   ---   13.3   13.4   13.4  1019.8  0.00   0.0   0.035   0.000   20.3    44    7.6   19.2   8.35 1.1989    41.7   214    2     96.4   10 
23/04/18  9:40a   13.8   13.8   13.3    90   12.2   0.0   ---   0.00   0.0   ---   13.8   13.8   13.8  1019.8  0.00   0.0   0.032   0.000   20.3    43    7.3   19.2   8.25 1.1989    41.7   217    2     97.7   10 
23/04/18  9:50a   14.6   14.6   13.9    86   12.2   0.0   ---   0.00   0.0   ---   14.6   14.6   14.6  1019.7  0.00   0.0   0.026   0.000   20.6    44    7.9   19.4   8.35 1.1975    41.7   217    2     97.7   10 
23/04/18 10:00a   15.2   15.2   14.6    81   12.0   0.0   ---   0.00   0.0   ---   15.2   15.2   15.2  1019.4  0.00   0.0   0.022   0.000   20.7    43    7.7   19.5   8.25 1.1966    41.7   217    2     97.7   10 
23/04/18 10:10a   15.9   15.9   15.2    78   12.1   0.0    SE   0.00   1.6    SE   15.9   15.8   15.8  1019.4  0.00   0.0   0.017   0.000   20.8    43    7.8   19.6   8.25 1.1961    41.7   217    2     97.7   10 
23/04/18 10:20a   16.7   16.7   15.9    74   12.1   0.0   ---   0.00   0.0   ---   16.7   16.6   16.6  1019.3  0.00   0.0   0.011   0.000   20.9    43    7.9   19.7   8.25 1.1954    41.7   218    2     98.2   10 
23/04/18 10:30a   17.4   17.4   16.8    68   11.4   0.0   ---   0.00   0.0   ---   17.4   17.2   17.2  1019.0  0.00   0.0   0.007   0.000   21.0    44    8.3   19.8   8.35 1.1945    41.7   215    2     96.8   10 
23/04/18 10:40a   18.0   18.0   17.4    67   11.8   0.0   ---   0.00   0.0   ---   18.0   17.8   17.8  1019.0  0.00   0.0   0.002   0.000   21.2    44    8.5   20.0   8.35 1.1935    41.7   216    2     97.3   10 
23/04/18 10:50a   18.4   18.4   18.0    66   11.9   0.0   ---   0.00   0.0   ---   18.4   18.3   18.3  1018.6  0.00   0.0   0.000   0.000   21.4    44    8.6   20.2   8.34 1.1922    41.7   183    2     82.4   10 
23/04/18 11:00a   18.5   18.7   18.4    63   11.3   0.0   ---   0.00   0.0   ---   18.5   18.2   18.2  1018.5  0.00   0.0   0.000   0.001   21.5    43    8.4   20.3   8.22 1.1917    41.7   174    2     78.4   10 
23/04/18 11:10a   18.2   18.5   18.1    64   11.3   0.0    SE   0.00   3.2    SE   18.2   18.0   18.0  1018.5  0.00   0.0   0.001   0.000   21.7    43    8.5   20.5   8.21 1.1909    41.7   218    2     98.2   10 
23/04/18 11:20a   18.6   18.6   18.2    63   11.4   0.0    SE   0.00   3.2    SE   18.6   18.3   18.3  1018.5  0.00   0.0   0.000   0.002   21.8    43    8.6   20.7   8.20 1.1904    41.7   213    2     95.9   10 
23/04/18 11:30a   18.7   18.8   18.6    62   11.3   0.0    SE   0.00   4.8    SE   18.7   18.4   18.4  1018.1  0.00   0.0   0.000   0.003   21.8    43    8.7   20.8   8.20 1.1897    41.7   215    2     96.8   10 
23/04/18 11:40a   19.6   19.6   18.7    62   12.1   0.0   ---   0.00   0.0   ---   19.6   19.4   19.4  1018.1  0.00   0.0   0.000   0.008   21.9    43    8.8   20.9   8.19 1.1891    41.7   221    2     99.5   10 
23/04/18 11:50a   20.2   20.2   19.7    58   11.7   0.0   ---   0.00   0.0   ---   20.2   19.9   19.9  1017.6  0.00   0.0   0.000   0.013   22.1    43    8.9   21.1   8.18 1.1881    41.7   219    2     98.6   10 
23/04/18 12:00p   20.6   20.6   20.2    56   11.5   0.0    SE   0.00   3.2    SE   20.6   20.1   20.1  1017.5  0.00   0.0   0.000   0.015   22.2    43    9.0   21.3   8.17 1.1874    41.7   217    2     97.7   10 
23/04/18 12:10p   21.2   21.2   20.6    50   10.4   0.0   ---   0.00   0.0   ---   21.2   20.3   20.3  1017.5  0.00   0.0   0.000   0.020   22.2    43    9.0   21.3   8.17 1.1871    41.7   217    2     97.7   10 
23/04/18 12:20p   21.7   21.7   21.2    50   10.8   0.0    SE   0.00   3.2    SE   21.7   20.9   20.9  1017.3  0.00   0.0   0.000   0.023   22.4    43    9.2   21.7   8.15 1.1858    41.7   217    2     97.7   10 
23/04/18 12:30p   21.4   21.8   21.4    50   10.5   0.0    SE   0.00   4.8    SE   21.4   20.5   20.5  1017.0  0.00   0.0   0.000   0.021   22.7    43    9.5   22.1   8.13 1.1841    41.7   211    2     95.0   10 
23/04/18 12:40p   21.4   21.4   21.2    49   10.2   0.0    SE   0.00   1.6    SE   21.4   20.5   20.5  1017.0  0.00   0.0   0.000   0.021   23.0    43    9.7   22.5   8.11 1.1828    41.7   218    2     98.2   10 
23/04/18 12:50p   22.0   22.0   21.4    42    8.5   0.0   ---   0.00   0.0   ---   22.0   20.9   20.9  1016.8  0.00   0.0   0.000   0.025   23.3    42    9.6   22.8   7.97 1.1815    41.7   213    2     95.9   10 
23/04/18  1:00p   22.9   22.9   22.0    45   10.4   0.0    SE   0.00   1.6    SE   22.9   22.5   22.5  1016.4  0.00   0.0   0.000   0.032   23.4    42    9.7   22.9   7.97 1.1805    41.7   220    2     99.1   10 
23/04/18  1:10p   22.9   23.0   22.8    45   10.4   0.0    SE   0.00   1.6    SE   22.9   22.5   22.5  1016.4  0.00   0.0   0.000   0.032   23.6    42    9.9   23.2   7.96 1.1797    41.7   218    2     98.2   10 
23/04/18  1:20p   23.3   23.3   22.9    40    9.0   0.0    SE   0.00   3.2    SE   23.3   22.8   22.8  1016.2  0.00   0.0   0.000   0.035   23.7    42   10.0   23.3   7.96 1.1789    41.7   218    2     98.2   10 
23/04/18  1:30p   23.4   23.4   23.3    40    9.0   0.0    SE   0.00   4.8    SE   23.4   22.9   22.9  1016.1  0.00   0.0   0.000   0.035   23.9    42   10.2   23.6   7.95 1.1777    41.7   211    2     95.0   10 
23/04/18  1:40p   22.9   23.4   22.9    39    8.2   0.0    SE   0.00   3.2    SE   22.9   22.2   22.2  1016.1  0.00   0.0   0.000   0.032   24.2    41   10.1   23.8   7.75 1.1767    41.7   212    2     95.5   10 
23/04/18  1:50p   23.1   23.1   22.7    39    8.4   0.0   ---   0.00   0.0   ---   23.1   22.5   22.5  1016.1  0.00   0.0   0.000   0.033   24.3    41   10.2   23.8   7.75 1.1761    41.7   211    2     95.0   10 
23/04/18  2:00p   23.6   23.6   23.2    37    8.1   0.0   SSE   0.00   1.6   SSE   23.6   23.0   23.0  1015.8  0.00   0.0   0.000   0.037   24.3    41   10.2   23.8   7.75 1.1759    41.7   214    2     96.4   10 
23/04/18  2:10p   23.8   23.8   23.7    35    7.4   0.0   SSE   0.00   3.2   SSE   23.8   23.1   23.1  1015.8  0.00   0.0   0.000   0.038   24.3    40    9.9   23.8   7.63 1.1759    41.7   214    2     96.4   10 
23/04/18  2:20p   24.0   24.0   23.8    33    6.7   0.0    SE   0.00   4.8    SE   24.0   23.2   23.2  1015.8  0.00   0.0   0.000   0.039   24.3    40    9.9   23.8   7.63 1.1759    41.7   217    2     97.7   10 
23/04/18  2:30p   24.0   24.0   24.0    34    7.2   0.0    SE   0.00   4.8    SE   24.0   23.3   23.3  1015.8  0.00   0.0   0.000   0.039   24.4    40   10.0   23.9   7.63 1.1754    41.7   218    2     98.2   10